sensor_id;sensor_type;location;lat;lon;timestamp;P1;durP1;ratioP1;P2;durP2;ratioP2
65871;SDS011;52653;50.080;21.992;2023-03-04T00:02:58;51.60;;;28.20;;
65871;SDS011;52653;50.080;21.992;2023-03-04T00:05:30;47.90;;;26.40;;
65871;SDS011;52653;50.080;21.992;2023-03-04T00:08:03;49.50;;;25.90;;
65871;SDS011;52653;50.080;21.992;2023-03-04T00:10:36;45.50;;;25.90;;
65871;SDS011;52653;50.080;21.992;2023-03-04T00:13:11;45.60;;;25.70;;
65871;SDS011;52653;50.080;21.992;2023-03-04T00:15:45;43.40;;;22.40;;
65871;SDS011;52653;50.080;21.992;2023-03-04T00:18:18;47.70;;;27.00;;
65871;SDS011;52653;50.080;21.992;2023-03-04T00:20:50;46.10;;;25.20;;
65871;SDS011;52653;50.080;21.992;2023-03-04T00:23:23;51.90;;;28.30;;
65871;SDS011;52653;50.080;21.992;2023-03-04T00:25:57;50.20;;;26.70;;
65871;SDS011;52653;50.080;21.992;2023-03-04T00:28:29;50.00;;;26.20;;
65871;SDS011;52653;50.080;21.992;2023-03-04T00:31:02;50.00;;;27.00;;
65871;SDS011;52653;50.080;21.992;2023-03-04T00:33:35;48.30;;;24.80;;
65871;SDS011;52653;50.080;21.992;2023-03-04T00:36:09;45.80;;;26.20;;
65871;SDS011;52653;50.080;21.992;2023-03-04T00:38:44;48.20;;;25.20;;
65871;SDS011;52653;50.080;21.992;2023-03-04T00:41:16;50.80;;;26.10;;
65871;SDS011;52653;50.080;21.992;2023-03-04T00:43:49;49.20;;;24.80;;
65871;SDS011;52653;50.080;21.992;2023-03-04T00:46:22;43.80;;;23.40;;
65871;SDS011;52653;50.080;21.992;2023-03-04T00:48:55;41.60;;;22.20;;
65871;SDS011;52653;50.080;21.992;2023-03-04T00:51:30;42.90;;;20.90;;
65871;SDS011;52653;50.080;21.992;2023-03-04T00:54:03;44.60;;;21.90;;
65871;SDS011;52653;50.080;21.992;2023-03-04T00:56:36;41.60;;;22.10;;
65871;SDS011;52653;50.080;21.992;2023-03-04T00:59:09;45.00;;;23.30;;
65871;SDS011;52653;50.080;21.992;2023-03-04T01:01:41;42.80;;;24.10;;
65871;SDS011;52653;50.080;21.992;2023-03-04T01:04:18;44.20;;;23.20;;
65871;SDS011;52653;50.080;21.992;2023-03-04T01:06:51;46.60;;;24.20;;
65871;SDS011;52653;50.080;21.992;2023-03-04T01:09:24;47.20;;;23.90;;
65871;SDS011;52653;50.080;21.992;2023-03-04T01:11:57;45.20;;;22.90;;
65871;SDS011;52653;50.080;21.992;2023-03-04T01:14:33;47.70;;;23.10;;
65871;SDS011;52653;50.080;21.992;2023-03-04T01:17:06;47.00;;;23.40;;
65871;SDS011;52653;50.080;21.992;2023-03-04T01:19:40;48.40;;;25.10;;
65871;SDS011;52653;50.080;21.992;2023-03-04T01:22:16;44.80;;;23.10;;
65871;SDS011;52653;50.080;21.992;2023-03-04T01:24:49;45.00;;;23.10;;
65871;SDS011;52653;50.080;21.992;2023-03-04T01:27:22;45.20;;;22.70;;
65871;SDS011;52653;50.080;21.992;2023-03-04T01:29:54;42.20;;;21.70;;
65871;SDS011;52653;50.080;21.992;2023-03-04T01:32:27;43.50;;;22.30;;
65871;SDS011;52653;50.080;21.992;2023-03-04T01:35:00;43.20;;;22.50;;
65871;SDS011;52653;50.080;21.992;2023-03-04T01:37:33;40.20;;;20.60;;
65871;SDS011;52653;50.080;21.992;2023-03-04T01:40:07;47.50;;;23.30;;
65871;SDS011;52653;50.080;21.992;2023-03-04T01:42:40;48.90;;;22.80;;
65871;SDS011;52653;50.080;21.992;2023-03-04T01:45:15;47.50;;;22.30;;
65871;SDS011;52653;50.080;21.992;2023-03-04T01:47:49;44.90;;;23.20;;
65871;SDS011;52653;50.080;21.992;2023-03-04T01:50:23;50.30;;;24.50;;
65871;SDS011;52653;50.080;21.992;2023-03-04T01:53:01;45.40;;;23.10;;
65871;SDS011;52653;50.080;21.992;2023-03-04T01:55:35;46.10;;;22.90;;
65871;SDS011;52653;50.080;21.992;2023-03-04T01:58:09;50.20;;;25.10;;
65871;SDS011;52653;50.080;21.992;2023-03-04T02:00:45;47.90;;;23.30;;
65871;SDS011;52653;50.080;21.992;2023-03-04T02:03:19;47.70;;;24.30;;
65871;SDS011;52653;50.080;21.992;2023-03-04T02:05:52;47.70;;;23.80;;
65871;SDS011;52653;50.080;21.992;2023-03-04T02:08:28;46.50;;;23.20;;
65871;SDS011;52653;50.080;21.992;2023-03-04T02:11:00;47.10;;;24.70;;
65871;SDS011;52653;50.080;21.992;2023-03-04T02:13:33;46.70;;;24.60;;
65871;SDS011;52653;50.080;21.992;2023-03-04T02:16:09;51.40;;;25.90;;
65871;SDS011;52653;50.080;21.992;2023-03-04T02:18:44;54.00;;;25.50;;
65871;SDS011;52653;50.080;21.992;2023-03-04T02:21:19;50.90;;;26.20;;
65871;SDS011;52653;50.080;21.992;2023-03-04T02:23:58;51.80;;;25.10;;
65871;SDS011;52653;50.080;21.992;2023-03-04T02:26:36;51.80;;;25.00;;
65871;SDS011;52653;50.080;21.992;2023-03-04T02:29:13;53.50;;;25.90;;
65871;SDS011;52653;50.080;21.992;2023-03-04T02:31:47;53.30;;;25.20;;
65871;SDS011;52653;50.080;21.992;2023-03-04T02:34:22;55.00;;;26.90;;
65871;SDS011;52653;50.080;21.992;2023-03-04T02:36:58;50.50;;;24.40;;
65871;SDS011;52653;50.080;21.992;2023-03-04T02:39:33;55.00;;;26.90;;
65871;SDS011;52653;50.080;21.992;2023-03-04T02:42:09;60.00;;;28.40;;
65871;SDS011;52653;50.080;21.992;2023-03-04T02:44:43;52.90;;;25.70;;
65871;SDS011;52653;50.080;21.992;2023-03-04T02:47:20;57.40;;;26.70;;
65871;SDS011;52653;50.080;21.992;2023-03-04T02:49:53;57.70;;;27.20;;
65871;SDS011;52653;50.080;21.992;2023-03-04T02:52:26;58.20;;;27.90;;
65871;SDS011;52653;50.080;21.992;2023-03-04T02:54:58;53.50;;;27.30;;
65871;SDS011;52653;50.080;21.992;2023-03-04T02:57:32;62.50;;;29.20;;
65871;SDS011;52653;50.080;21.992;2023-03-04T03:00:06;57.20;;;28.90;;
65871;SDS011;52653;50.080;21.992;2023-03-04T03:02:41;61.60;;;29.20;;
65871;SDS011;52653;50.080;21.992;2023-03-04T03:05:15;66.10;;;30.40;;
65871;SDS011;52653;50.080;21.992;2023-03-04T03:07:48;59.70;;;29.50;;
65871;SDS011;52653;50.080;21.992;2023-03-04T03:10:22;62.10;;;29.00;;
65871;SDS011;52653;50.080;21.992;2023-03-04T03:12:56;60.50;;;29.20;;
65871;SDS011;52653;50.080;21.992;2023-03-04T03:15:29;62.50;;;27.90;;
65871;SDS011;52653;50.080;21.992;2023-03-04T03:18:01;61.50;;;29.70;;
65871;SDS011;52653;50.080;21.992;2023-03-04T03:20:44;54.70;;;25.40;;
65871;SDS011;52653;50.080;21.992;2023-03-04T03:23:16;56.10;;;27.20;;
65871;SDS011;52653;50.080;21.992;2023-03-04T03:25:49;55.20;;;27.00;;
65871;SDS011;52653;50.080;21.992;2023-03-04T03:28:22;56.20;;;27.20;;
65871;SDS011;52653;50.080;21.992;2023-03-04T03:30:54;59.60;;;28.80;;
65871;SDS011;52653;50.080;21.992;2023-03-04T03:33:27;58.20;;;29.50;;
65871;SDS011;52653;50.080;21.992;2023-03-04T03:36:00;61.20;;;30.20;;
65871;SDS011;52653;50.080;21.992;2023-03-04T03:38:34;59.90;;;29.50;;
65871;SDS011;52653;50.080;21.992;2023-03-04T03:41:07;57.90;;;27.90;;
65871;SDS011;52653;50.080;21.992;2023-03-04T03:43:39;51.80;;;25.70;;
65871;SDS011;52653;50.080;21.992;2023-03-04T03:46:12;56.90;;;27.40;;
65871;SDS011;52653;50.080;21.992;2023-03-04T03:48:45;53.10;;;26.30;;
65871;SDS011;52653;50.080;21.992;2023-03-04T03:51:18;55.40;;;25.90;;
65871;SDS011;52653;50.080;21.992;2023-03-04T03:53:51;53.10;;;24.70;;
65871;SDS011;52653;50.080;21.992;2023-03-04T03:56:27;53.00;;;25.00;;
65871;SDS011;52653;50.080;21.992;2023-03-04T03:58:59;51.70;;;23.00;;
65871;SDS011;52653;50.080;21.992;2023-03-04T04:01:32;57.70;;;27.70;;
65871;SDS011;52653;50.080;21.992;2023-03-04T04:04:08;56.60;;;27.10;;
65871;SDS011;52653;50.080;21.992;2023-03-04T04:06:41;56.60;;;26.50;;
65871;SDS011;52653;50.080;21.992;2023-03-04T04:09:14;53.00;;;25.90;;
65871;SDS011;52653;50.080;21.992;2023-03-04T04:11:47;48.60;;;23.20;;
65871;SDS011;52653;50.080;21.992;2023-03-04T04:14:20;52.00;;;24.80;;
65871;SDS011;52653;50.080;21.992;2023-03-04T04:16:52;53.90;;;25.10;;
65871;SDS011;52653;50.080;21.992;2023-03-04T04:19:25;52.40;;;26.10;;
65871;SDS011;52653;50.080;21.992;2023-03-04T04:21:59;51.60;;;24.90;;
65871;SDS011;52653;50.080;21.992;2023-03-04T04:24:32;47.60;;;22.50;;
65871;SDS011;52653;50.080;21.992;2023-03-04T04:27:05;48.80;;;25.00;;
65871;SDS011;52653;50.080;21.992;2023-03-04T04:29:38;45.50;;;23.50;;
65871;SDS011;52653;50.080;21.992;2023-03-04T04:32:11;45.60;;;22.00;;
65871;SDS011;52653;50.080;21.992;2023-03-04T04:34:43;50.00;;;22.20;;
65871;SDS011;52653;50.080;21.992;2023-03-04T04:37:16;50.60;;;23.40;;
65871;SDS011;52653;50.080;21.992;2023-03-04T04:39:49;49.10;;;25.00;;
65871;SDS011;52653;50.080;21.992;2023-03-04T04:42:23;43.30;;;22.30;;
65871;SDS011;52653;50.080;21.992;2023-03-04T04:44:57;48.90;;;23.20;;
65871;SDS011;52653;50.080;21.992;2023-03-04T04:47:29;44.40;;;22.10;;
65871;SDS011;52653;50.080;21.992;2023-03-04T04:50:02;47.00;;;21.80;;
65871;SDS011;52653;50.080;21.992;2023-03-04T04:52:35;51.40;;;23.90;;
65871;SDS011;52653;50.080;21.992;2023-03-04T04:55:09;48.60;;;23.40;;
65871;SDS011;52653;50.080;21.992;2023-03-04T04:57:42;47.30;;;21.60;;
65871;SDS011;52653;50.080;21.992;2023-03-04T05:00:24;43.50;;;21.50;;
65871;SDS011;52653;50.080;21.992;2023-03-04T05:02:57;46.70;;;22.40;;
65871;SDS011;52653;50.080;21.992;2023-03-04T05:05:30;48.00;;;22.80;;
65871;SDS011;52653;50.080;21.992;2023-03-04T05:08:03;45.10;;;23.40;;
65871;SDS011;52653;50.080;21.992;2023-03-04T05:10:36;46.90;;;21.10;;
65871;SDS011;52653;50.080;21.992;2023-03-04T05:13:09;44.60;;;20.90;;
65871;SDS011;52653;50.080;21.992;2023-03-04T05:15:45;47.30;;;23.90;;
65871;SDS011;52653;50.080;21.992;2023-03-04T05:18:20;43.90;;;21.60;;
65871;SDS011;52653;50.080;21.992;2023-03-04T05:20:55;44.10;;;21.40;;
65871;SDS011;52653;50.080;21.992;2023-03-04T05:23:30;42.40;;;20.90;;
65871;SDS011;52653;50.080;21.992;2023-03-04T05:26:07;48.30;;;23.20;;
65871;SDS011;52653;50.080;21.992;2023-03-04T05:28:43;44.50;;;21.60;;
65871;SDS011;52653;50.080;21.992;2023-03-04T05:31:16;46.00;;;22.70;;
65871;SDS011;52653;50.080;21.992;2023-03-04T05:33:49;45.70;;;23.70;;
65871;SDS011;52653;50.080;21.992;2023-03-04T05:36:25;47.40;;;21.80;;
65871;SDS011;52653;50.080;21.992;2023-03-04T05:38:57;42.50;;;22.60;;
65871;SDS011;52653;50.080;21.992;2023-03-04T05:41:30;47.60;;;22.20;;
65871;SDS011;52653;50.080;21.992;2023-03-04T05:44:03;45.30;;;22.60;;
65871;SDS011;52653;50.080;21.992;2023-03-04T05:46:36;45.80;;;22.80;;
65871;SDS011;52653;50.080;21.992;2023-03-04T05:49:08;47.50;;;21.20;;
65871;SDS011;52653;50.080;21.992;2023-03-04T05:51:42;41.80;;;22.00;;
65871;SDS011;52653;50.080;21.992;2023-03-04T05:54:15;49.00;;;23.60;;
65871;SDS011;52653;50.080;21.992;2023-03-04T05:56:47;50.50;;;25.00;;
65871;SDS011;52653;50.080;21.992;2023-03-04T05:59:20;45.90;;;22.30;;
65871;SDS011;52653;50.080;21.992;2023-03-04T06:01:53;49.80;;;22.50;;
65871;SDS011;52653;50.080;21.992;2023-03-04T06:04:25;46.90;;;24.70;;
65871;SDS011;52653;50.080;21.992;2023-03-04T06:06:58;49.60;;;23.80;;
65871;SDS011;52653;50.080;21.992;2023-03-04T06:09:30;49.70;;;25.40;;
65871;SDS011;52653;50.080;21.992;2023-03-04T06:12:03;56.10;;;26.70;;
65871;SDS011;52653;50.080;21.992;2023-03-04T06:14:37;51.30;;;23.70;;
65871;SDS011;52653;50.080;21.992;2023-03-04T06:17:10;64.40;;;31.40;;
65871;SDS011;52653;50.080;21.992;2023-03-04T06:19:42;44.80;;;21.80;;
65871;SDS011;52653;50.080;21.992;2023-03-04T06:22:15;44.70;;;22.70;;
65871;SDS011;52653;50.080;21.992;2023-03-04T06:24:48;38.70;;;19.40;;
65871;SDS011;52653;50.080;21.992;2023-03-04T06:27:21;40.20;;;22.10;;
65871;SDS011;52653;50.080;21.992;2023-03-04T06:29:54;42.70;;;21.90;;
65871;SDS011;52653;50.080;21.992;2023-03-04T06:32:27;38.70;;;21.80;;
65871;SDS011;52653;50.080;21.992;2023-03-04T06:35:00;44.60;;;23.60;;
65871;SDS011;52653;50.080;21.992;2023-03-04T06:37:32;45.40;;;24.80;;
65871;SDS011;52653;50.080;21.992;2023-03-04T06:40:06;44.10;;;24.10;;
65871;SDS011;52653;50.080;21.992;2023-03-04T06:42:40;44.40;;;22.80;;
65871;SDS011;52653;50.080;21.992;2023-03-04T06:45:13;44.50;;;23.00;;
65871;SDS011;52653;50.080;21.992;2023-03-04T06:47:46;45.70;;;23.40;;
65871;SDS011;52653;50.080;21.992;2023-03-04T06:50:18;43.90;;;21.60;;
65871;SDS011;52653;50.080;21.992;2023-03-04T06:52:51;43.10;;;20.70;;
65871;SDS011;52653;50.080;21.992;2023-03-04T06:55:27;43.00;;;22.00;;
65871;SDS011;52653;50.080;21.992;2023-03-04T06:58:00;40.00;;;21.40;;
65871;SDS011;52653;50.080;21.992;2023-03-04T07:00:33;43.30;;;22.50;;
65871;SDS011;52653;50.080;21.992;2023-03-04T07:03:05;46.20;;;23.60;;
65871;SDS011;52653;50.080;21.992;2023-03-04T07:05:39;43.50;;;23.30;;
65871;SDS011;52653;50.080;21.992;2023-03-04T07:08:11;45.10;;;22.20;;
65871;SDS011;52653;50.080;21.992;2023-03-04T07:10:45;41.50;;;22.90;;
65871;SDS011;52653;50.080;21.992;2023-03-04T07:13:18;45.50;;;24.30;;
65871;SDS011;52653;50.080;21.992;2023-03-04T07:15:51;41.70;;;20.20;;
65871;SDS011;52653;50.080;21.992;2023-03-04T07:18:24;43.20;;;22.20;;
65871;SDS011;52653;50.080;21.992;2023-03-04T07:20:57;43.40;;;22.40;;
65871;SDS011;52653;50.080;21.992;2023-03-04T07:23:29;42.30;;;23.00;;
65871;SDS011;52653;50.080;21.992;2023-03-04T07:26:02;46.50;;;25.30;;
65871;SDS011;52653;50.080;21.992;2023-03-04T07:28:36;40.60;;;20.50;;
65871;SDS011;52653;50.080;21.992;2023-03-04T07:31:17;48.30;;;25.60;;
65871;SDS011;52653;50.080;21.992;2023-03-04T07:33:54;47.20;;;26.50;;
65871;SDS011;52653;50.080;21.992;2023-03-04T07:36:28;47.70;;;25.40;;
65871;SDS011;52653;50.080;21.992;2023-03-04T07:39:01;46.50;;;22.10;;
65871;SDS011;52653;50.080;21.992;2023-03-04T07:41:35;49.70;;;25.50;;
65871;SDS011;52653;50.080;21.992;2023-03-04T07:44:10;43.50;;;20.80;;
65871;SDS011;52653;50.080;21.992;2023-03-04T07:46:43;40.00;;;21.40;;
65871;SDS011;52653;50.080;21.992;2023-03-04T07:49:19;43.90;;;24.30;;
65871;SDS011;52653;50.080;21.992;2023-03-04T07:51:52;45.30;;;26.00;;
65871;SDS011;52653;50.080;21.992;2023-03-04T07:54:24;50.40;;;26.20;;
65871;SDS011;52653;50.080;21.992;2023-03-04T07:56:57;48.70;;;25.60;;
65871;SDS011;52653;50.080;21.992;2023-03-04T07:59:30;47.70;;;23.70;;
65871;SDS011;52653;50.080;21.992;2023-03-04T08:02:05;48.40;;;25.90;;
65871;SDS011;52653;50.080;21.992;2023-03-04T08:04:39;54.30;;;29.50;;
65871;SDS011;52653;50.080;21.992;2023-03-04T08:07:12;46.20;;;25.30;;
65871;SDS011;52653;50.080;21.992;2023-03-04T08:09:46;48.60;;;26.20;;
65871;SDS011;52653;50.080;21.992;2023-03-04T08:12:19;45.00;;;22.90;;
65871;SDS011;52653;50.080;21.992;2023-03-04T08:14:53;42.80;;;22.10;;
65871;SDS011;52653;50.080;21.992;2023-03-04T08:17:26;44.80;;;25.10;;
65871;SDS011;52653;50.080;21.992;2023-03-04T08:20:01;44.90;;;25.30;;
65871;SDS011;52653;50.080;21.992;2023-03-04T08:22:34;47.70;;;26.80;;
65871;SDS011;52653;50.080;21.992;2023-03-04T08:25:07;51.10;;;25.00;;
65871;SDS011;52653;50.080;21.992;2023-03-04T08:27:40;48.60;;;26.60;;
65871;SDS011;52653;50.080;21.992;2023-03-04T08:30:19;48.50;;;26.10;;
65871;SDS011;52653;50.080;21.992;2023-03-04T08:32:52;49.20;;;27.10;;
65871;SDS011;52653;50.080;21.992;2023-03-04T08:35:25;48.80;;;26.60;;
65871;SDS011;52653;50.080;21.992;2023-03-04T08:37:58;49.40;;;26.30;;
65871;SDS011;52653;50.080;21.992;2023-03-04T08:40:31;39.10;;;22.10;;
65871;SDS011;52653;50.080;21.992;2023-03-04T08:43:05;43.10;;;22.40;;
65871;SDS011;52653;50.080;21.992;2023-03-04T08:45:38;40.70;;;23.90;;
65871;SDS011;52653;50.080;21.992;2023-03-04T08:48:12;38.70;;;21.30;;
65871;SDS011;52653;50.080;21.992;2023-03-04T08:50:46;41.80;;;23.10;;
65871;SDS011;52653;50.080;21.992;2023-03-04T08:53:20;39.70;;;22.60;;
65871;SDS011;52653;50.080;21.992;2023-03-04T08:55:53;37.20;;;21.50;;
65871;SDS011;52653;50.080;21.992;2023-03-04T08:58:26;37.60;;;22.00;;
65871;SDS011;52653;50.080;21.992;2023-03-04T09:00:59;35.90;;;19.80;;
65871;SDS011;52653;50.080;21.992;2023-03-04T09:03:35;36.00;;;20.50;;
65871;SDS011;52653;50.080;21.992;2023-03-04T09:06:08;34.50;;;20.10;;
65871;SDS011;52653;50.080;21.992;2023-03-04T09:08:42;35.60;;;21.20;;
65871;SDS011;52653;50.080;21.992;2023-03-04T09:11:15;38.60;;;22.80;;
65871;SDS011;52653;50.080;21.992;2023-03-04T09:13:50;37.80;;;21.50;;
65871;SDS011;52653;50.080;21.992;2023-03-04T09:16:23;35.70;;;19.80;;
65871;SDS011;52653;50.080;21.992;2023-03-04T09:18:56;37.40;;;21.10;;
65871;SDS011;52653;50.080;21.992;2023-03-04T09:21:29;37.70;;;21.20;;
65871;SDS011;52653;50.080;21.992;2023-03-04T09:24:02;34.90;;;19.80;;
65871;SDS011;52653;50.080;21.992;2023-03-04T09:26:37;41.40;;;23.60;;
65871;SDS011;52653;50.080;21.992;2023-03-04T09:29:13;35.70;;;21.70;;
65871;SDS011;52653;50.080;21.992;2023-03-04T09:31:46;38.20;;;22.00;;
65871;SDS011;52653;50.080;21.992;2023-03-04T09:34:19;37.60;;;21.20;;
65871;SDS011;52653;50.080;21.992;2023-03-04T09:36:52;35.50;;;19.70;;
65871;SDS011;52653;50.080;21.992;2023-03-04T09:39:25;38.00;;;20.70;;
65871;SDS011;52653;50.080;21.992;2023-03-04T09:41:58;38.90;;;23.80;;
65871;SDS011;52653;50.080;21.992;2023-03-04T09:44:33;33.60;;;20.00;;
65871;SDS011;52653;50.080;21.992;2023-03-04T09:47:11;33.00;;;20.00;;
65871;SDS011;52653;50.080;21.992;2023-03-04T09:49:50;34.50;;;18.40;;
65871;SDS011;52653;50.080;21.992;2023-03-04T09:52:29;35.70;;;19.60;;
65871;SDS011;52653;50.080;21.992;2023-03-04T09:55:17;35.80;;;20.50;;
65871;SDS011;52653;50.080;21.992;2023-03-04T09:57:56;34.50;;;21.70;;
65871;SDS011;52653;50.080;21.992;2023-03-04T10:00:36;36.70;;;21.70;;
65871;SDS011;52653;50.080;21.992;2023-03-04T10:03:16;39.80;;;24.70;;
65871;SDS011;52653;50.080;21.992;2023-03-04T10:05:52;35.00;;;21.70;;
65871;SDS011;52653;50.080;21.992;2023-03-04T10:08:33;38.50;;;23.20;;
65871;SDS011;52653;50.080;21.992;2023-03-04T10:11:12;38.30;;;25.00;;
65871;SDS011;52653;50.080;21.992;2023-03-04T10:13:52;38.70;;;24.00;;
65871;SDS011;52653;50.080;21.992;2023-03-04T10:16:33;36.30;;;21.60;;
65871;SDS011;52653;50.080;21.992;2023-03-04T10:19:23;34.20;;;21.00;;
65871;SDS011;52653;50.080;21.992;2023-03-04T10:22:02;38.60;;;24.70;;
65871;SDS011;52653;50.080;21.992;2023-03-04T10:24:49;38.60;;;24.10;;
65871;SDS011;52653;50.080;21.992;2023-03-04T10:27:23;44.80;;;25.00;;
65871;SDS011;52653;50.080;21.992;2023-03-04T10:29:58;43.40;;;25.60;;
65871;SDS011;52653;50.080;21.992;2023-03-04T10:32:32;37.50;;;21.40;;
65871;SDS011;52653;50.080;21.992;2023-03-04T10:35:10;44.70;;;26.20;;
65871;SDS011;52653;50.080;21.992;2023-03-04T10:37:48;41.50;;;25.60;;
65871;SDS011;52653;50.080;21.992;2023-03-04T10:40:22;46.00;;;27.00;;
65871;SDS011;52653;50.080;21.992;2023-03-04T10:42:57;40.50;;;23.20;;
65871;SDS011;52653;50.080;21.992;2023-03-04T10:45:38;45.80;;;24.40;;
65871;SDS011;52653;50.080;21.992;2023-03-04T10:48:21;43.20;;;24.90;;
65871;SDS011;52653;50.080;21.992;2023-03-04T10:50:57;41.50;;;24.30;;
65871;SDS011;52653;50.080;21.992;2023-03-04T10:53:48;43.30;;;26.30;;
65871;SDS011;52653;50.080;21.992;2023-03-04T10:56:31;44.00;;;26.30;;
65871;SDS011;52653;50.080;21.992;2023-03-04T10:59:30;39.60;;;25.40;;
65871;SDS011;52653;50.080;21.992;2023-03-04T11:02:12;38.20;;;20.50;;
65871;SDS011;52653;50.080;21.992;2023-03-04T11:04:50;39.90;;;23.80;;
65871;SDS011;52653;50.080;21.992;2023-03-04T11:07:29;38.00;;;23.90;;
65871;SDS011;52653;50.080;21.992;2023-03-04T11:10:24;32.00;;;19.00;;
65871;SDS011;52653;50.080;21.992;2023-03-04T11:13:00;39.40;;;23.60;;
65871;SDS011;52653;50.080;21.992;2023-03-04T11:15:50;33.90;;;22.10;;
65871;SDS011;52653;50.080;21.992;2023-03-04T11:18:29;33.00;;;20.30;;
65871;SDS011;52653;50.080;21.992;2023-03-04T11:21:12;30.50;;;20.30;;
65871;SDS011;52653;50.080;21.992;2023-03-04T11:23:51;29.90;;;19.40;;
65871;SDS011;52653;50.080;21.992;2023-03-04T11:26:27;31.90;;;19.60;;
65871;SDS011;52653;50.080;21.992;2023-03-04T11:29:04;36.30;;;23.10;;
65871;SDS011;52653;50.080;21.992;2023-03-04T11:31:45;39.70;;;24.20;;
65871;SDS011;52653;50.080;21.992;2023-03-04T11:34:27;42.50;;;25.70;;
65871;SDS011;52653;50.080;21.992;2023-03-04T11:37:07;44.70;;;27.90;;
65871;SDS011;52653;50.080;21.992;2023-03-04T11:39:48;44.40;;;26.30;;
65871;SDS011;52653;50.080;21.992;2023-03-04T11:42:30;42.00;;;26.10;;
65871;SDS011;52653;50.080;21.992;2023-03-04T11:45:12;37.30;;;22.70;;
65871;SDS011;52653;50.080;21.992;2023-03-04T11:48:00;35.80;;;22.50;;
65871;SDS011;52653;50.080;21.992;2023-03-04T11:50:41;42.50;;;24.40;;
65871;SDS011;52653;50.080;21.992;2023-03-04T11:53:30;39.10;;;24.50;;
65871;SDS011;52653;50.080;21.992;2023-03-04T11:56:14;41.00;;;26.90;;
65871;SDS011;52653;50.080;21.992;2023-03-04T11:58:58;41.00;;;25.90;;
65871;SDS011;52653;50.080;21.992;2023-03-04T12:01:42;41.60;;;25.30;;
65871;SDS011;52653;50.080;21.992;2023-03-04T12:04:38;40.10;;;25.90;;
65871;SDS011;52653;50.080;21.992;2023-03-04T12:10:17;46.60;;;29.90;;
65871;SDS011;52653;50.080;21.992;2023-03-04T12:16:18;39.30;;;24.70;;
65871;SDS011;52653;50.080;21.992;2023-03-04T12:19:13;38.50;;;25.40;;
65871;SDS011;52653;50.080;21.992;2023-03-04T12:22:01;44.50;;;27.50;;
65871;SDS011;52653;50.080;21.992;2023-03-04T12:27:40;40.50;;;24.60;;
65871;SDS011;52653;50.080;21.992;2023-03-04T12:30:26;46.00;;;28.30;;
65871;SDS011;52653;50.080;21.992;2023-03-04T12:33:17;49.80;;;31.10;;
65871;SDS011;52653;50.080;21.992;2023-03-04T12:36:03;46.90;;;27.30;;
65871;SDS011;52653;50.080;21.992;2023-03-04T12:38:50;54.20;;;32.90;;
65871;SDS011;52653;50.080;21.992;2023-03-04T12:41:42;41.00;;;23.50;;
65871;SDS011;52653;50.080;21.992;2023-03-04T12:44:26;42.70;;;25.10;;
65871;SDS011;52653;50.080;21.992;2023-03-04T12:47:12;46.10;;;28.40;;
65871;SDS011;52653;50.080;21.992;2023-03-04T12:49:59;41.60;;;27.20;;
65871;SDS011;52653;50.080;21.992;2023-03-04T12:52:49;48.40;;;30.50;;
65871;SDS011;52653;50.080;21.992;2023-03-04T12:55:32;47.60;;;29.60;;
65871;SDS011;52653;50.080;21.992;2023-03-04T12:58:12;53.40;;;32.90;;
65871;SDS011;52653;50.080;21.992;2023-03-04T13:00:50;48.30;;;30.60;;
65871;SDS011;52653;50.080;21.992;2023-03-04T13:03:32;51.30;;;30.90;;
65871;SDS011;52653;50.080;21.992;2023-03-04T13:06:13;49.00;;;30.20;;
65871;SDS011;52653;50.080;21.992;2023-03-04T13:08:58;50.40;;;26.10;;
65871;SDS011;52653;50.080;21.992;2023-03-04T13:11:50;43.80;;;26.40;;
65871;SDS011;52653;50.080;21.992;2023-03-04T13:14:32;41.40;;;25.40;;
65871;SDS011;52653;50.080;21.992;2023-03-04T13:20:17;44.40;;;24.40;;
65871;SDS011;52653;50.080;21.992;2023-03-04T13:22:56;46.20;;;27.20;;
65871;SDS011;52653;50.080;21.992;2023-03-04T13:25:31;46.10;;;28.50;;
65871;SDS011;52653;50.080;21.992;2023-03-04T13:28:12;45.10;;;28.50;;
65871;SDS011;52653;50.080;21.992;2023-03-04T13:33:59;44.30;;;26.30;;
65871;SDS011;52653;50.080;21.992;2023-03-04T13:39:33;43.80;;;25.40;;
65871;SDS011;52653;50.080;21.992;2023-03-04T13:45:30;40.50;;;23.50;;
65871;SDS011;52653;50.080;21.992;2023-03-04T13:48:06;41.70;;;26.50;;
65871;SDS011;52653;50.080;21.992;2023-03-04T13:50:53;43.50;;;28.10;;
65871;SDS011;52653;50.080;21.992;2023-03-04T13:53:37;46.70;;;29.50;;
65871;SDS011;52653;50.080;21.992;2023-03-04T13:56:17;42.90;;;27.50;;
65871;SDS011;52653;50.080;21.992;2023-03-04T13:59:04;50.80;;;31.10;;
65871;SDS011;52653;50.080;21.992;2023-03-04T14:02:01;46.70;;;27.70;;
65871;SDS011;52653;50.080;21.992;2023-03-04T14:04:41;46.10;;;28.20;;
65871;SDS011;52653;50.080;21.992;2023-03-04T14:07:19;45.90;;;27.00;;
65871;SDS011;52653;50.080;21.992;2023-03-04T14:09:55;44.40;;;27.00;;
65871;SDS011;52653;50.080;21.992;2023-03-04T14:12:31;43.70;;;27.20;;
65871;SDS011;52653;50.080;21.992;2023-03-04T14:15:15;50.90;;;31.60;;
65871;SDS011;52653;50.080;21.992;2023-03-04T14:17:53;50.20;;;31.90;;
65871;SDS011;52653;50.080;21.992;2023-03-04T14:20:28;59.30;;;35.60;;
65871;SDS011;52653;50.080;21.992;2023-03-04T14:23:06;58.20;;;32.20;;
65871;SDS011;52653;50.080;21.992;2023-03-04T14:26:05;57.80;;;32.50;;
65871;SDS011;52653;50.080;21.992;2023-03-04T14:28:43;55.60;;;32.30;;
65871;SDS011;52653;50.080;21.992;2023-03-04T14:31:20;51.20;;;28.40;;
65871;SDS011;52653;50.080;21.992;2023-03-04T14:33:56;50.40;;;29.20;;
65871;SDS011;52653;50.080;21.992;2023-03-04T14:36:32;48.00;;;28.40;;
65871;SDS011;52653;50.080;21.992;2023-03-04T14:39:18;43.60;;;27.10;;
65871;SDS011;52653;50.080;21.992;2023-03-04T14:41:54;48.50;;;28.40;;
65871;SDS011;52653;50.080;21.992;2023-03-04T14:44:31;47.30;;;26.90;;
65871;SDS011;52653;50.080;21.992;2023-03-04T14:47:08;48.00;;;30.60;;
65871;SDS011;52653;50.080;21.992;2023-03-04T14:49:45;49.30;;;29.00;;
65871;SDS011;52653;50.080;21.992;2023-03-04T14:52:31;48.70;;;28.50;;
65871;SDS011;52653;50.080;21.992;2023-03-04T14:55:20;44.40;;;28.40;;
65871;SDS011;52653;50.080;21.992;2023-03-04T14:58:06;46.00;;;27.10;;
65871;SDS011;52653;50.080;21.992;2023-03-04T15:01:01;40.20;;;23.10;;
65871;SDS011;52653;50.080;21.992;2023-03-04T15:03:56;40.70;;;24.00;;
65871;SDS011;52653;50.080;21.992;2023-03-04T15:06:54;38.10;;;22.70;;
65871;SDS011;52653;50.080;21.992;2023-03-04T15:09:34;38.00;;;24.60;;
65871;SDS011;52653;50.080;21.992;2023-03-04T15:12:07;43.50;;;26.50;;
65871;SDS011;52653;50.080;21.992;2023-03-04T15:14:42;41.90;;;26.50;;
65871;SDS011;52653;50.080;21.992;2023-03-04T15:17:22;41.40;;;24.50;;
65871;SDS011;52653;50.080;21.992;2023-03-04T15:20:19;47.70;;;27.10;;
65871;SDS011;52653;50.080;21.992;2023-03-04T15:22:59;40.60;;;23.50;;
65871;SDS011;52653;50.080;21.992;2023-03-04T15:25:38;35.60;;;21.20;;